Time;durP1;ratioP1;P1;durP2;ratioP2;P2;SDS_P1;SDS_P2;PMS_P1;PMS_P2;Temp;Humidity;BMP_temperature;BMP_pressure;BME280_temperature;BME280_humidity;BME280_pressure;Samples;Min_cycle;Max_cycle;Signal;HPM_P1;HPM_P2
2022/03/02 00:01:38;;;;;;;18.05;13.23;;;-1.20;99.90;;;;;;5010928;28;20053;-72
2022/03/02 00:04:04;;;;;;;16.88;14.63;;;-1.20;99.90;;;;;;5011020;28;20034;-73
2022/03/02 00:06:29;;;;;;;16.80;13.02;;;-1.10;99.90;;;;;;5011258;28;20400;-73
2022/03/02 00:08:55;;;;;;;16.05;13.43;;;-1.10;99.90;;;;;;5009447;28;20022;-73
2022/03/02 00:11:20;;;;;;;13.25;11.55;;;-1.20;99.90;;;;;;5009649;28;20022;-73
2022/03/02 00:13:46;;;;;;;16.00;13.00;;;-1.10;99.90;;;;;;5010811;28;20112;-72
2022/03/02 00:16:12;;;;;;;13.80;11.35;;;-1.00;99.90;;;;;;5010927;28;20545;-72
2022/03/02 00:18:39;;;;;;;14.90;12.68;;;-0.90;99.90;;;;;;5009659;28;20026;-72
2022/03/02 00:21:04;;;;;;;17.63;13.93;;;-0.90;99.90;;;;;;5012934;28;20061;-72
2022/03/02 00:23:30;;;;;;;16.65;12.60;;;-1.20;99.90;;;;;;5013265;28;20053;-72
2022/03/02 00:25:56;;;;;;;15.48;13.07;;;-1.40;99.90;;;;;;5017404;28;20521;-72
2022/03/02 00:28:22;;;;;;;15.05;13.40;;;-1.40;99.90;;;;;;5014495;28;20030;-72
2022/03/02 00:30:48;;;;;;;15.65;12.82;;;-1.40;99.90;;;;;;5014326;28;20124;-72
2022/03/02 00:33:13;;;;;;;17.63;13.80;;;-1.40;99.90;;;;;;5014327;28;20096;-72
2022/03/02 00:35:39;;;;;;;16.08;13.73;;;-1.30;99.90;;;;;;5013196;28;20091;-72
2022/03/02 00:38:06;;;;;;;18.50;14.38;;;-1.50;99.90;;;;;;5014326;28;20418;-72
2022/03/02 00:40:32;;;;;;;17.95;14.57;;;-1.60;99.90;;;;;;5013002;28;20187;-73
2022/03/02 00:42:58;;;;;;;17.23;14.10;;;-1.60;99.90;;;;;;5014038;28;20022;-73
2022/03/02 00:45:25;;;;;;;15.93;13.18;;;-1.60;99.90;;;;;;5014278;28;20519;-73
2022/03/02 00:47:51;;;;;;;17.65;14.73;;;-1.60;99.90;;;;;;5014102;28;20018;-72
2022/03/02 00:50:17;;;;;;;16.45;14.57;;;-1.60;99.90;;;;;;5006700;28;20022;-72
2022/03/02 00:52:43;;;;;;;19.83;15.93;;;-1.70;99.90;;;;;;5014004;28;20499;-72
2022/03/02 00:55:08;;;;;;;26.42;18.77;;;-1.70;99.90;;;;;;5014646;28;20098;-72
2022/03/02 00:57:34;;;;;;;28.40;20.55;;;-1.70;99.90;;;;;;5013996;28;20112;-72
2022/03/02 00:59:59;;;;;;;26.77;20.38;;;-1.60;99.90;;;;;;5012450;28;20026;-72
2022/03/02 01:02:25;;;;;;;25.13;17.70;;;-1.70;99.90;;;;;;5013468;28;20084;-72
2022/03/02 01:04:51;;;;;;;23.27;18.23;;;-1.70;99.90;;;;;;5014165;28;20509;-72
2022/03/02 01:07:16;;;;;;;22.05;17.08;;;-1.70;99.90;;;;;;5013712;28;20030;-72
2022/03/02 01:09:42;;;;;;;19.92;16.25;;;-1.80;99.90;;;;;;5012559;28;20041;-72
2022/03/02 01:12:08;;;;;;;18.75;15.98;;;-1.80;99.90;;;;;;5013692;28;20026;-73
2022/03/02 01:14:33;;;;;;;18.30;15.38;;;-1.90;99.90;;;;;;5012412;28;20037;-72
2022/03/02 01:16:59;;;;;;;19.15;16.17;;;-1.90;99.90;;;;;;5013779;28;20113;-72
2022/03/02 01:19:25;;;;;;;18.20;15.20;;;-2.00;99.90;;;;;;5014047;28;20467;-73
2022/03/02 01:21:50;;;;;;;18.58;15.30;;;-1.90;99.90;;;;;;5013500;28;20033;-72
2022/03/02 01:24:16;;;;;;;16.65;14.70;;;-1.90;99.90;;;;;;5013610;28;20037;-73
2022/03/02 01:26:42;;;;;;;18.88;14.68;;;-2.00;99.90;;;;;;5025538;28;20045;-72
2022/03/02 01:29:07;;;;;;;18.88;14.90;;;-2.00;99.90;;;;;;5013539;28;20061;-72
2022/03/02 01:31:33;;;;;;;17.17;14.30;;;-2.00;99.90;;;;;;5011266;28;20030;-73
2022/03/02 01:33:58;;;;;;;17.98;14.68;;;-1.90;99.90;;;;;;5013400;28;20034;-73
2022/03/02 01:36:24;;;;;;;17.88;14.35;;;-1.90;99.90;;;;;;5013503;28;20426;-73
2022/03/02 01:38:51;;;;;;;19.30;15.57;;;-1.90;99.90;;;;;;5013506;28;20025;-73
2022/03/02 01:41:20;;;;;;;15.55;13.90;;;-1.90;99.90;;;;;;5013178;28;20501;-71
2022/03/02 01:43:47;;;;;;;17.60;14.27;;;-1.80;99.90;;;;;;5012986;28;20402;-71
2022/03/02 01:46:14;;;;;;;16.40;13.30;;;-1.90;99.90;;;;;;4998989;28;20022;-71
2022/03/02 01:48:40;;;;;;;16.58;13.30;;;-1.90;99.90;;;;;;5011656;28;20105;-73
2022/03/02 01:51:05;;;;;;;17.30;14.70;;;-1.90;99.90;;;;;;5013145;28;20433;-73
2022/03/02 01:53:32;;;;;;;16.70;13.55;;;-2.00;99.90;;;;;;5012873;28;20097;-73
2022/03/02 01:55:59;;;;;;;18.38;13.95;;;-1.90;99.90;;;;;;5013030;28;20365;-72
2022/03/02 01:58:25;;;;;;;17.95;13.90;;;-1.90;99.90;;;;;;5012955;28;20037;-73
2022/03/02 02:00:51;;;;;;;17.27;13.35;;;-1.80;99.90;;;;;;5012839;28;20030;-71
2022/03/02 02:03:18;;;;;;;15.77;13.40;;;-1.80;99.90;;;;;;5012900;28;20117;-72
2022/03/02 02:05:43;;;;;;;15.77;13.43;;;-1.70;99.90;;;;;;5012866;28;20369;-71
2022/03/02 02:08:09;;;;;;;15.68;12.45;;;-1.60;99.90;;;;;;5011361;28;20032;-71
2022/03/02 02:10:35;;;;;;;18.15;14.13;;;-1.50;99.90;;;;;;5012612;28;20041;-71
2022/03/02 02:13:01;;;;;;;16.08;13.30;;;-1.50;99.90;;;;;;5012461;28;20484;-73
2022/03/02 02:15:26;;;;;;;16.08;13.60;;;-1.40;99.90;;;;;;5011587;28;20030;-73
2022/03/02 02:17:52;;;;;;;15.90;13.32;;;-1.40;99.90;;;;;;5012731;28;20030;-72
2022/03/02 02:20:17;;;;;;;15.38;12.95;;;-1.30;99.90;;;;;;5012432;28;20029;-73
2022/03/02 02:22:45;;;;;;;24.90;19.92;;;-1.30;99.90;;;;;;5011306;28;20022;-72
2022/03/02 02:25:12;;;;;;;16.90;13.85;;;-1.20;99.90;;;;;;5009085;28;20068;-72
2022/03/02 02:27:38;;;;;;;21.08;16.23;;;-1.40;99.90;;;;;;5018887;28;20026;-73
2022/03/02 02:30:05;;;;;;;17.63;14.93;;;-1.50;99.90;;;;;;5012424;28;20419;-73
2022/03/02 02:32:31;;;;;;;22.20;17.80;;;-1.40;99.90;;;;;;5011774;28;20026;-73
2022/03/02 02:34:59;;;;;;;21.83;16.60;;;-1.50;99.90;;;;;;5010809;28;20021;-72
2022/03/02 02:37:25;;;;;;;21.13;17.25;;;-1.40;99.90;;;;;;5012381;28;20022;-73
2022/03/02 02:40:00;;;;;;;19.50;14.77;;;-1.50;99.90;;;;;;5012376;28;20364;-73
2022/03/02 02:42:26;;;;;;;18.17;15.82;;;-1.60;99.90;;;;;;5012140;28;20507;-73
2022/03/02 02:44:52;;;;;;;16.63;13.98;;;-1.70;99.90;;;;;;5012284;28;20026;-73
2022/03/02 02:47:18;;;;;;;17.63;14.95;;;-1.80;99.90;;;;;;5012203;28;20380;-72
2022/03/02 02:49:43;;;;;;;16.38;14.32;;;-1.90;99.90;;;;;;5012171;28;20072;-72
2022/03/02 02:52:09;;;;;;;16.13;13.80;;;-1.70;99.90;;;;;;5012052;28;20026;-72
2022/03/02 02:54:34;;;;;;;15.77;14.07;;;-1.70;99.90;;;;;;5012043;28;20018;-72
2022/03/02 02:57:00;;;;;;;17.48;14.75;;;-1.80;99.90;;;;;;5010754;28;20026;-72
2022/03/02 02:59:25;;;;;;;18.10;13.00;;;-1.80;99.90;;;;;;5012106;28;20026;-73
2022/03/02 03:01:51;;;;;;;17.05;15.23;;;-1.90;99.90;;;;;;5011970;28;20100;-72
2022/03/02 03:04:17;;;;;;;18.55;15.23;;;-1.90;99.90;;;;;;5010777;28;20117;-72
2022/03/02 03:06:42;;;;;;;17.35;15.48;;;-2.10;99.90;;;;;;5011948;28;20472;-73
2022/03/02 03:09:08;;;;;;;16.58;14.00;;;-2.10;99.90;;;;;;5011834;28;20306;-73
2022/03/02 03:11:37;;;;;;;16.90;14.85;;;-2.00;99.90;;;;;;5011655;28;20495;-73
2022/03/02 03:14:10;;;;;;;17.05;14.40;;;-1.90;99.90;;;;;;5010464;28;20037;-72
2022/03/02 03:16:36;;;;;;;17.58;14.43;;;-1.80;99.90;;;;;;5012035;28;20026;-73
2022/03/02 03:19:02;;;;;;;18.75;13.70;;;-1.60;99.90;;;;;;5011908;28;20057;-73
2022/03/02 03:21:28;;;;;;;16.58;14.05;;;-1.50;99.90;;;;;;5011234;28;20396;-73
2022/03/02 03:23:53;;;;;;;20.98;13.80;;;-1.60;99.90;;;;;;5010086;28;20026;-74
2022/03/02 03:26:19;;;;;;;17.92;16.08;;;-1.70;99.90;;;;;;5015579;28;20034;-72
2022/03/02 03:28:44;;;;;;;17.50;15.35;;;-2.20;99.90;;;;;;5011516;28;20379;-72
2022/03/02 03:31:10;;;;;;;22.02;14.80;;;-2.50;99.90;;;;;;5011531;28;20033;-72
2022/03/02 03:33:35;;;;;;;17.20;15.10;;;-2.30;99.90;;;;;;5011658;28;20026;-71
2022/03/02 03:36:02;;;;;;;18.08;16.15;;;-2.40;99.90;;;;;;5012242;28;20101;-71
2022/03/02 03:38:27;;;;;;;18.88;15.07;;;-2.20;99.90;;;;;;5012184;28;20476;-72
2022/03/02 03:40:53;;;;;;;17.02;14.93;;;-2.30;99.90;;;;;;5011395;28;20029;-72
2022/03/02 03:43:18;;;;;;;16.02;14.40;;;-2.60;99.90;;;;;;5011647;28;20251;-72
2022/03/02 03:45:44;;;;;;;19.30;13.15;;;-2.60;99.90;;;;;;5010160;28;20399;-73
2022/03/02 03:48:09;;;;;;;20.67;16.08;;;-2.60;99.90;;;;;;5010306;28;20030;-73
2022/03/02 03:50:35;;;;;;;21.05;13.60;;;-2.50;99.90;;;;;;5011200;28;20040;-73
2022/03/02 03:53:01;;;;;;;16.92;14.77;;;-2.60;99.90;;;;;;5011317;28;20472;-73
2022/03/02 03:55:27;;;;;;;18.90;15.55;;;-2.50;99.90;;;;;;5013157;28;20061;-72
2022/03/02 03:57:52;;;;;;;17.25;14.60;;;-2.40;99.90;;;;;;5014177;28;20053;-72
2022/03/02 04:00:19;;;;;;;17.83;14.73;;;-2.40;99.90;;;;;;5013771;28;20500;-72
2022/03/02 04:02:45;;;;;;;18.40;14.80;;;-2.30;99.90;;;;;;5015237;28;20090;-73
2022/03/02 04:05:11;;;;;;;19.65;15.10;;;-2.40;99.90;;;;;;5015221;28;20026;-72
2022/03/02 04:07:38;;;;;;;19.60;15.70;;;-2.40;99.90;;;;;;5014717;28;20076;-72
2022/03/02 04:10:07;;;;;;;20.00;13.35;;;-2.40;99.90;;;;;;5014907;28;20091;-72
2022/03/02 04:12:34;;;;;;;18.42;14.90;;;-2.30;99.90;;;;;;5014657;28;20495;-73
2022/03/02 04:15:00;;;;;;;17.40;15.35;;;-2.40;99.90;;;;;;5013438;28;20034;-72
2022/03/02 04:17:25;;;;;;;19.95;15.85;;;-2.40;99.90;;;;;;5014980;28;20124;-72
2022/03/02 04:19:51;;;;;;;17.00;14.57;;;-2.40;99.90;;;;;;5014983;28;20025;-72
2022/03/02 04:22:17;;;;;;;17.25;14.40;;;-2.40;99.90;;;;;;5014865;28;20022;-73
2022/03/02 04:24:43;;;;;;;16.45;14.43;;;-2.40;99.90;;;;;;5017370;28;20079;-72
2022/03/02 04:27:09;;;;;;;17.27;15.40;;;-2.40;99.90;;;;;;5025104;28;20502;-72
2022/03/02 04:29:34;;;;;;;17.13;15.23;;;-2.50;99.90;;;;;;5014554;28;20030;-72
2022/03/02 04:32:00;;;;;;;17.85;15.05;;;-2.40;99.90;;;;;;5014571;28;20022;-72
2022/03/02 04:34:26;;;;;;;19.58;15.20;;;-2.40;99.90;;;;;;5014600;28;20033;-72
2022/03/02 04:36:52;;;;;;;16.70;14.93;;;-2.40;99.90;;;;;;5014330;28;20101;-72
2022/03/02 04:39:17;;;;;;;17.25;15.45;;;-2.30;99.90;;;;;;5014905;28;20034;-71
2022/03/02 04:41:43;;;;;;;18.65;14.77;;;-2.30;99.90;;;;;;5014316;28;20450;-72
2022/03/02 04:44:09;;;;;;;17.20;13.00;;;-2.40;99.90;;;;;;5014693;28;20018;-71
2022/03/02 04:46:35;;;;;;;18.85;15.52;;;-2.50;99.90;;;;;;5014472;28;20042;-73
2022/03/02 04:49:10;;;;;;;14.05;12.10;;;-2.50;99.90;;;;;;5014182;28;20025;-71
2022/03/02 04:51:39;;;;;;;18.42;15.52;;;-2.40;99.90;;;;;;5014075;28;20391;-71
2022/03/02 04:54:05;;;;;;;16.98;15.07;;;-2.40;99.90;;;;;;5013865;28;20109;-71
2022/03/02 04:56:30;;;;;;;19.90;12.98;;;-2.60;99.90;;;;;;5013587;28;20109;-72
2022/03/02 04:58:56;;;;;;;19.40;15.13;;;-2.60;99.90;;;;;;5013807;28;20438;-72
2022/03/02 05:01:22;;;;;;;16.95;15.15;;;-2.50;99.90;;;;;;5013557;28;20060;-72
2022/03/02 05:03:47;;;;;;;17.83;15.80;;;-2.50;99.90;;;;;;5012400;28;20458;-72
2022/03/02 05:06:13;;;;;;;16.25;14.48;;;-2.50;99.90;;;;;;5011685;28;20404;-71
2022/03/02 05:08:38;;;;;;;18.30;15.80;;;-2.40;99.90;;;;;;5013214;28;20153;-71
2022/03/02 05:11:04;;;;;;;16.98;15.18;;;-2.40;99.90;;;;;;5013374;28;20057;-72
2022/03/02 05:13:29;;;;;;;16.77;14.85;;;-2.40;99.90;;;;;;5036278;23;20046;-73
2022/03/02 05:15:55;;;;;;;22.95;15.60;;;-2.40;99.90;;;;;;5013686;28;20127;-73
2022/03/02 05:18:20;;;;;;;21.35;15.75;;;-2.30;99.90;;;;;;5013492;28;20037;-73
2022/03/02 05:20:46;;;;;;;20.45;15.50;;;-2.30;99.90;;;;;;5013611;28;20034;-73
2022/03/02 05:23:12;;;;;;;19.85;15.07;;;-2.30;99.90;;;;;;5013589;28;20037;-73
2022/03/02 05:25:37;;;;;;;19.50;15.55;;;-2.40;99.90;;;;;;5012334;28;20364;-72
2022/03/02 05:28:03;;;;;;;19.38;16.38;;;-2.40;99.90;;;;;;5012013;28;20064;-73
2022/03/02 05:30:29;;;;;;;19.08;15.60;;;-2.30;99.90;;;;;;5012560;28;20045;-73
2022/03/02 05:32:54;;;;;;;18.27;15.52;;;-2.10;99.90;;;;;;4998085;28;20102;-73
2022/03/02 05:35:20;;;;;;;18.25;16.17;;;-2.30;99.90;;;;;;4993940;28;20037;-73
2022/03/02 05:37:45;;;;;;;19.42;16.67;;;-2.20;99.90;;;;;;4993825;28;20078;-74
2022/03/02 05:40:17;;;;;;;20.52;16.52;;;-2.20;99.90;;;;;;4994021;28;20077;-73
2022/03/02 05:42:42;;;;;;;19.00;17.00;;;-2.10;99.90;;;;;;4997960;28;20030;-75
2022/03/02 05:45:09;;;;;;;18.50;16.42;;;-2.10;99.90;;;;;;5000707;28;20081;-74
2022/03/02 05:47:35;;;;;;;19.75;16.92;;;-2.20;99.90;;;;;;4995843;28;20080;-74
2022/03/02 05:50:02;;;;;;;22.13;17.35;;;-2.20;99.90;;;;;;5010792;28;20037;-74
2022/03/02 05:52:27;;;;;;;19.00;16.33;;;-2.20;99.90;;;;;;5012368;28;20017;-74
2022/03/02 05:54:53;;;;;;;19.08;17.08;;;-2.40;99.90;;;;;;4995508;28;20018;-73
2022/03/02 05:57:18;;;;;;;18.83;16.80;;;-2.40;99.90;;;;;;4992308;28;20023;-75
2022/03/02 05:59:44;;;;;;;20.00;17.63;;;-2.30;99.90;;;;;;4993513;28;20030;-74
2022/03/02 06:02:09;;;;;;;22.30;17.77;;;-2.30;99.90;;;;;;4994904;28;20022;-74
2022/03/02 06:04:35;;;;;;;22.63;17.90;;;-2.40;99.90;;;;;;5006132;28;20029;-74
2022/03/02 06:07:00;;;;;;;22.98;18.52;;;-2.30;99.90;;;;;;5002252;28;20030;-74
2022/03/02 06:09:26;;;;;;;23.42;18.80;;;-2.30;99.90;;;;;;4993343;28;20038;-75
2022/03/02 06:11:52;;;;;;;21.67;18.35;;;-2.20;99.90;;;;;;4992966;28;20033;-75
2022/03/02 06:14:18;;;;;;;22.27;19.80;;;-2.10;99.90;;;;;;4993070;28;20508;-75
2022/03/02 06:16:44;;;;;;;27.17;22.02;;;-2.10;99.90;;;;;;4993011;28;20029;-74
2022/03/02 06:19:09;;;;;;;31.35;23.23;;;-2.00;99.90;;;;;;5003370;28;20032;-74
2022/03/02 06:21:38;;;;;;;28.85;22.25;;;-2.00;99.90;;;;;;5012504;28;20026;-73
2022/03/02 06:24:05;;;;;;;30.90;23.65;;;-2.00;99.90;;;;;;5011112;28;20077;-74
2022/03/02 06:26:32;;;;;;;30.08;23.83;;;-2.00;99.90;;;;;;5012598;28;20098;-74
2022/03/02 06:28:57;;;;;;;25.75;21.63;;;-2.00;99.90;;;;;;5011552;28;20121;-75
2022/03/02 06:31:23;;;;;;;27.58;21.42;;;-2.00;99.90;;;;;;5002191;28;20105;-73
2022/03/02 06:33:49;;;;;;;34.88;19.42;;;-2.00;99.90;;;;;;5007315;28;20109;-74
2022/03/02 06:36:15;;;;;;;29.17;22.63;;;-2.00;99.90;;;;;;5004202;28;20018;-74
2022/03/02 06:38:41;;;;;;;33.20;25.70;;;-2.10;99.90;;;;;;5011089;28;20113;-75
2022/03/02 06:41:09;;;;;;;32.28;23.38;;;-2.10;99.90;;;;;;5003863;28;20537;-74
2022/03/02 06:43:46;;;;;;;26.63;21.38;;;-2.10;99.90;;;;;;5012328;28;20419;-74
2022/03/02 06:46:16;;;;;;;22.33;19.17;;;-2.20;99.90;;;;;;5012341;28;20058;-74
2022/03/02 06:48:52;;;;;;;23.95;19.08;;;-2.20;99.90;;;;;;5012131;28;20030;-74
2022/03/02 06:51:22;;;;;;;25.58;18.38;;;-2.20;99.90;;;;;;5009531;28;20116;-74
2022/03/02 06:53:49;;;;;;;21.33;18.55;;;-2.30;99.90;;;;;;4999008;28;20109;-74
2022/03/02 06:56:18;;;;;;;21.02;18.58;;;-2.30;99.90;;;;;;5004324;28;20054;-74
2022/03/02 06:58:53;;;;;;;20.55;17.85;;;-2.20;99.90;;;;;;5007707;28;20025;-74
2022/03/02 07:01:27;;;;;;;21.95;18.13;;;-2.00;99.90;;;;;;5001026;28;20030;-75
2022/03/02 07:03:57;;;;;;;21.10;18.70;;;-1.80;99.90;;;;;;5005786;28;20034;-75
2022/03/02 07:06:23;;;;;;;21.08;18.67;;;-1.70;99.90;;;;;;5004122;28;20022;-76
2022/03/02 07:08:49;;;;;;;23.40;19.45;;;-1.70;99.90;;;;;;5005571;28;20391;-75
2022/03/02 07:11:16;;;;;;;23.05;19.23;;;-1.60;99.90;;;;;;5004375;28;20022;-75
2022/03/02 07:13:42;;;;;;;22.02;17.92;;;-1.50;99.90;;;;;;4998766;28;20088;-75
2022/03/02 07:16:08;;;;;;;23.70;18.95;;;-1.40;99.90;;;;;;4999957;28;20093;-76
2022/03/02 07:18:34;;;;;;;20.27;17.70;;;-1.30;99.90;;;;;;5005577;28;20033;-75
2022/03/02 07:21:05;;;;;;;21.38;18.00;;;-1.20;99.90;;;;;;5003863;28;20076;-75
2022/03/02 07:23:37;;;;;;;21.35;17.30;;;-1.10;99.90;;;;;;5011925;28;20022;-75
2022/03/02 07:26:05;;;;;;;20.85;16.42;;;-1.00;99.90;;;;;;5011357;28;20030;-75
2022/03/02 07:28:36;;;;;;;20.25;17.80;;;-1.00;99.90;;;;;;4999848;28;20482;-75
2022/03/02 07:31:02;;;;;;;21.27;18.20;;;-1.00;99.90;;;;;;5000788;28;20073;-75
2022/03/02 07:33:32;;;;;;;19.50;17.20;;;-0.90;99.90;;;;;;5006539;28;20388;-75
2022/03/02 07:35:58;;;;;;;21.70;17.55;;;-0.90;99.90;;;;;;5011470;28;20025;-74
2022/03/02 07:38:25;;;;;;;24.70;18.73;;;-0.80;99.90;;;;;;5007154;28;20045;-74
2022/03/02 07:40:50;;;;;;;22.45;18.77;;;-0.90;99.90;;;;;;5009054;28;20499;-74
2022/03/02 07:43:16;;;;;;;20.42;18.15;;;-0.80;99.90;;;;;;5004126;28;20041;-74
2022/03/02 07:45:41;;;;;;;25.13;19.08;;;-0.80;99.90;;;;;;5001416;28;20022;-74
2022/03/02 07:48:07;;;;;;;24.80;19.40;;;-0.90;99.90;;;;;;5011517;28;20041;-74
2022/03/02 07:50:33;;;;;;;23.35;19.52;;;-0.90;99.90;;;;;;5006888;28;20015;-74
2022/03/02 07:53:01;;;;;;;26.45;21.25;;;-0.90;99.90;;;;;;5015480;28;20026;-74
2022/03/02 07:55:28;;;;;;;23.15;20.35;;;-0.90;99.90;;;;;;5015666;28;20028;-74
2022/03/02 07:57:55;;;;;;;22.08;19.63;;;-0.80;99.90;;;;;;5015579;28;20022;-74
2022/03/02 08:00:22;;;;;;;22.23;19.83;;;-0.80;99.90;;;;;;5001973;28;20021;-74
2022/03/02 08:02:51;;;;;;;20.95;18.73;;;-0.70;99.90;;;;;;5005913;28;20498;-74
2022/03/02 08:05:17;;;;;;;24.15;20.30;;;-0.70;99.90;;;;;;5009047;28;20149;-74
2022/03/02 08:07:43;;;;;;;24.38;20.67;;;-0.70;99.90;;;;;;5005923;28;20499;-74
2022/03/02 08:10:09;;;;;;;24.38;19.85;;;-0.70;99.90;;;;;;5009816;28;20120;-74
2022/03/02 08:12:35;;;;;;;23.52;19.92;;;-0.80;99.90;;;;;;5005001;28;20030;-74
2022/03/02 08:15:03;;;;;;;24.75;20.73;;;-0.70;99.90;;;;;;5007843;28;20069;-74
2022/03/02 08:17:28;;;;;;;24.55;20.38;;;-0.60;99.90;;;;;;4994646;28;20080;-74
2022/03/02 08:19:54;;;;;;;25.90;21.50;;;-0.50;99.90;;;;;;5000527;28;20101;-74
2022/03/02 08:22:23;;;;;;;26.90;22.85;;;-0.40;99.90;;;;;;5004132;28;20501;-74
2022/03/02 08:25:03;;;;;;;24.70;21.08;;;-0.40;99.90;;;;;;5013717;28;20116;-75
2022/03/02 08:27:30;;;;;;;24.10;20.65;;;-0.30;99.90;;;;;;5015038;28;20080;-75
2022/03/02 08:29:57;;;;;;;22.95;19.80;;;-0.30;99.90;;;;;;5000181;28;20041;-75
2022/03/02 08:32:24;;;;;;;25.50;20.20;;;-0.10;99.90;;;;;;5002186;28;20037;-76
2022/03/02 08:34:50;;;;;;;22.35;19.40;;;-0.10;99.90;;;;;;5008442;28;20388;-75
2022/03/02 08:37:19;;;;;;;23.38;19.48;;;0.10;99.90;;;;;;5007895;28;20034;-76
2022/03/02 08:39:47;;;;;;;23.52;19.48;;;0.20;99.90;;;;;;5001782;28;20037;-75
2022/03/02 08:42:13;;;;;;;22.63;19.67;;;0.40;99.90;;;;;;5012176;28;20026;-74
2022/03/02 08:44:39;;;;;;;23.23;19.17;;;0.60;99.90;;;;;;5001392;28;20084;-74
2022/03/02 08:47:06;;;;;;;23.00;19.08;;;0.70;99.90;;;;;;5012957;28;20442;-74
2022/03/02 08:49:32;;;;;;;22.25;17.92;;;0.80;99.90;;;;;;5000525;28;20483;-74
2022/03/02 08:51:59;;;;;;;24.92;19.98;;;0.90;99.90;;;;;;4999828;28;20023;-75
2022/03/02 08:54:29;;;;;;;27.00;20.88;;;0.80;99.90;;;;;;5013236;28;20391;-75
2022/03/02 08:56:57;;;;;;;25.05;19.92;;;0.90;99.90;;;;;;5006757;28;20101;-75
2022/03/02 08:59:24;;;;;;;23.60;17.90;;;1.00;99.90;;;;;;5005057;28;20027;-76
2022/03/02 09:01:51;;;;;;;24.75;18.95;;;1.00;99.90;;;;;;5006344;28;20076;-76
2022/03/02 09:04:18;;;;;;;22.70;17.60;;;1.00;99.90;;;;;;5003394;28;20170;-76
2022/03/02 09:06:45;;;;;;;21.20;17.30;;;1.30;99.90;;;;;;5001110;28;20033;-76
2022/03/02 09:09:11;;;;;;;25.85;21.25;;;1.40;99.90;;;;;;5004048;28;20031;-75
2022/03/02 09:11:38;;;;;;;24.63;20.25;;;1.60;99.90;;;;;;5007553;28;20030;-75
2022/03/02 09:14:04;;;;;;;24.83;20.13;;;1.60;99.90;;;;;;5003260;28;20026;-74
2022/03/02 09:16:30;;;;;;;24.48;19.85;;;1.40;99.90;;;;;;5013871;28;20149;-74
2022/03/02 09:18:56;;;;;;;29.17;21.20;;;1.20;99.90;;;;;;5004126;28;20077;-74
2022/03/02 09:21:22;;;;;;;27.52;20.58;;;1.20;99.90;;;;;;4999282;28;20037;-74
2022/03/02 09:23:48;;;;;;;23.80;19.80;;;1.20;99.90;;;;;;5010679;28;20022;-74
2022/03/02 09:26:16;;;;;;;29.50;22.13;;;1.30;99.90;;;;;;5009272;28;20105;-74
2022/03/02 09:28:44;;;;;;;26.90;19.77;;;1.30;99.90;;;;;;5008759;28;20034;-77
2022/03/02 09:31:14;;;;;;;25.60;19.55;;;1.40;99.90;;;;;;4998686;28;20022;-76
2022/03/02 09:33:40;;;;;;;26.45;21.35;;;1.50;99.90;;;;;;5002207;28;20042;-75
2022/03/02 09:36:08;;;;;;;27.77;21.55;;;1.50;99.90;;;;;;5010671;28;20419;-74
2022/03/02 09:38:35;;;;;;;23.17;19.95;;;1.60;99.90;;;;;;5009576;28;20022;-74
2022/03/02 09:41:12;;;;;;;28.33;20.50;;;1.60;99.90;;;;;;5009939;28;20387;-74
2022/03/02 09:43:40;;;;;;;26.40;20.05;;;1.70;99.90;;;;;;5000531;28;20053;-75
2022/03/02 09:46:09;;;;;;;23.83;19.60;;;1.80;99.90;;;;;;5002622;28;20025;-74
2022/03/02 09:48:47;;;;;;;23.80;20.40;;;1.80;99.90;;;;;;4995260;28;20439;-74
2022/03/02 09:51:21;;;;;;;26.35;19.98;;;1.90;99.90;;;;;;5000117;28;20100;-74
2022/03/02 09:53:49;;;;;;;22.02;19.02;;;2.10;99.90;;;;;;5012644;28;20065;-74
2022/03/02 09:56:15;;;;;;;24.38;18.95;;;2.20;99.90;;;;;;5008827;28;20022;-74
2022/03/02 09:58:44;;;;;;;22.05;18.40;;;2.30;99.90;;;;;;4999016;28;20480;-74
2022/03/02 10:01:17;;;;;;;22.05;17.98;;;2.40;99.90;;;;;;5003817;28;20082;-74
2022/03/02 10:03:49;;;;;;;22.85;18.48;;;2.50;99.90;;;;;;4996205;28;20026;-74
2022/03/02 10:06:17;;;;;;;24.90;19.48;;;2.60;99.90;;;;;;5004634;28;20018;-74
2022/03/02 10:08:50;;;;;;;24.65;19.40;;;2.60;99.90;;;;;;4994961;28;20042;-74
2022/03/02 10:11:19;;;;;;;23.67;19.10;;;2.60;99.90;;;;;;5004786;28;20599;-74
2022/03/02 10:13:45;;;;;;;24.27;18.75;;;2.60;99.90;;;;;;5012978;28;20037;-75
2022/03/02 10:16:20;;;;;;;24.73;18.85;;;2.80;99.90;;;;;;5002890;28;20026;-74
2022/03/02 10:18:57;;;;;;;22.05;18.58;;;2.70;99.90;;;;;;4993388;28;20712;-74
2022/03/02 10:21:41;;;;;;;26.10;19.80;;;3.00;99.90;;;;;;4996008;28;20034;-74
2022/03/02 10:24:14;;;;;;;22.42;18.30;;;3.10;99.90;;;;;;5001210;28;20030;-74
2022/03/02 10:26:50;;;;;;;21.00;16.42;;;3.20;99.90;;;;;;4996207;28;20061;-74
2022/03/02 10:29:34;;;;;;;20.02;16.55;;;3.20;99.90;;;;;;4999927;28;20034;-74
2022/03/02 10:32:09;;;;;;;19.33;15.98;;;3.30;99.90;;;;;;4992903;28;20511;-74
2022/03/02 10:34:38;;;;;;;21.52;16.98;;;3.40;99.90;;;;;;5005748;28;20030;-74
2022/03/02 10:37:09;;;;;;;24.17;18.92;;;3.50;99.90;;;;;;5002453;28;20023;-74
2022/03/02 10:39:51;;;;;;;23.33;17.95;;;3.50;99.90;;;;;;5007395;28;20108;-74
2022/03/02 10:42:28;;;;;;;21.48;17.65;;;3.50;99.90;;;;;;4995453;28;20015;-74
2022/03/02 10:45:19;;;;;;;24.58;19.00;;;3.50;99.90;;;;;;4995187;28;20049;-74
2022/03/02 10:47:59;;;;;;;21.05;16.17;;;3.50;99.90;;;;;;5007235;28;20444;-74
2022/03/02 10:50:31;;;;;;;23.20;18.23;;;3.60;99.90;;;;;;5005477;28;20017;-74
2022/03/02 10:52:57;;;;;;;22.02;17.65;;;3.70;99.90;;;;;;4999850;28;20026;-74
2022/03/02 10:55:24;;;;;;;20.52;15.77;;;3.90;99.90;;;;;;4996391;28;20049;-74
2022/03/02 10:57:52;;;;;;;20.92;16.33;;;4.00;99.90;;;;;;5008338;28;20018;-74
2022/03/02 11:00:19;;;;;;;17.70;14.95;;;4.20;99.90;;;;;;5006990;28;20068;-74
2022/03/02 11:02:48;;;;;;;20.80;15.43;;;4.20;99.90;;;;;;5005235;28;20022;-74
2022/03/02 11:05:16;;;;;;;18.77;15.57;;;4.20;99.90;;;;;;4997252;28;20044;-74
2022/03/02 11:07:42;;;;;;;19.35;15.48;;;4.40;99.90;;;;;;5005242;28;20029;-74
2022/03/02 11:10:10;;;;;;;20.45;16.05;;;4.60;99.90;;;;;;4995358;28;20019;-74
2022/03/02 11:12:41;;;;;;;17.85;14.50;;;4.60;99.90;;;;;;5001545;28;20517;-74
2022/03/02 11:15:07;;;;;;;17.63;14.52;;;4.60;99.90;;;;;;5009382;28;20031;-74
2022/03/02 11:17:33;;;;;;;18.95;15.52;;;4.60;99.90;;;;;;5038880;23;20037;-71
2022/03/02 11:20:09;;;;;;;20.25;15.45;;;4.50;99.90;;;;;;4991472;28;20491;-71
2022/03/02 11:22:35;;;;;;;22.42;16.27;;;4.70;99.90;;;;;;4992239;28;20030;-71
2022/03/02 11:25:01;;;;;;;19.00;15.32;;;4.60;99.90;;;;;;4992022;28;20026;-71
2022/03/02 11:27:37;;;;;;;20.70;16.08;;;4.80;99.90;;;;;;5002512;28;20026;-72
2022/03/02 11:30:02;;;;;;;;;;;4.70;99.90;;;;;;4992680;28;20062;-72
2022/03/02 11:32:32;;;;;;;21.47;16.47;;;4.70;99.90;;;;;;5011188;28;19944;-72
2022/03/02 11:34:59;;;;;;;19.65;14.77;;;4.90;99.90;;;;;;5003259;28;20383;-72
2022/03/02 11:37:25;;;;;;;17.30;13.93;;;4.80;99.90;;;;;;5011156;28;20025;-71
2022/03/02 11:39:51;;;;;;;20.25;17.05;;;5.00;99.90;;;;;;5008254;28;20026;-72
2022/03/02 11:42:17;;;;;;;17.25;14.25;;;5.00;99.90;;;;;;5008872;28;20029;-73
2022/03/02 11:44:44;;;;;;;18.40;14.30;;;5.20;99.90;;;;;;5007224;28;20024;-71
2022/03/02 11:47:20;;;;;;;17.92;14.52;;;5.30;99.90;;;;;;4993684;28;20491;-71
2022/03/02 11:49:51;;;;;;;18.30;14.27;;;5.30;99.90;;;;;;4994252;28;20033;-71
2022/03/02 11:52:27;;;;;;;16.55;13.07;;;5.30;99.90;;;;;;5005399;28;20042;-72
2022/03/02 11:54:55;;;;;;;14.25;12.60;;;5.40;99.90;;;;;;4990820;28;20547;-71
2022/03/02 11:57:22;;;;;;;17.73;13.18;;;5.60;99.90;;;;;;5011599;28;20105;-71
2022/03/02 11:59:50;;;;;;;17.05;13.48;;;5.70;99.90;;;;;;5011854;28;20038;-71
2022/03/02 12:02:21;;;;;;;17.95;13.90;;;5.70;99.90;;;;;;4980816;28;20029;-71
2022/03/02 12:04:58;;;;;;;35.40;16.23;;;5.60;99.90;;;;;;4981468;28;20026;-73
2022/03/02 12:07:24;;;;;;;16.23;13.55;;;5.70;99.90;;;;;;4981234;28;20025;-73
2022/03/02 12:09:50;;;;;;;16.33;14.18;;;5.70;99.90;;;;;;5011426;28;20032;-73
2022/03/02 12:12:20;;;;;;;17.30;13.25;;;6.00;99.90;;;;;;5004372;28;20057;-72
2022/03/02 12:15:05;;;;;;;16.98;13.57;;;6.20;99.90;;;;;;4988663;28;20029;-72
2022/03/02 12:17:33;;;;;;;17.63;14.02;;;6.10;99.90;;;;;;5014469;28;20025;-74
2022/03/02 12:20:04;;;;;;;15.77;14.05;;;6.30;99.90;;;;;;5002217;28;20026;-73
2022/03/02 12:22:36;;;;;;;15.63;12.07;;;6.50;99.90;;;;;;5003970;28;20029;-73
2022/03/02 12:25:02;;;;;;;15.05;12.32;;;6.90;99.90;;;;;;5013933;28;20076;-73
2022/03/02 12:27:28;;;;;;;14.05;12.15;;;6.80;99.90;;;;;;5010409;28;20081;-73
2022/03/02 12:29:59;;;;;;;16.98;12.27;;;7.10;99.90;;;;;;4995893;28;20475;-73
2022/03/02 12:32:30;;;;;;;16.00;12.18;;;7.20;99.90;;;;;;5014703;28;20026;-73